createdAt,value
2023-01-19T00:01:35.655Z,99009.97
2023-01-19T00:03:39.491Z,99004.78
2023-01-19T00:05:43.142Z,99000.44
2023-01-19T00:07:45.993Z,99021.16
2023-01-19T00:09:48.873Z,99016.13
2023-01-19T00:11:51.758Z,99014.13
2023-01-19T00:13:54.676Z,99013.31
2023-01-19T00:15:59.156Z,99007.28
2023-01-19T00:18:02.032Z,99009.66
2023-01-19T00:20:05.632Z,99008.72
2023-01-19T00:22:08.468Z,99010.59
2023-01-19T00:24:13.831Z,99006.50
2023-01-19T00:26:17.345Z,99005.50
2023-01-19T00:28:20.320Z,99015.91
2023-01-19T00:30:23.182Z,99010.59
2023-01-19T00:32:27.915Z,99012.22
2023-01-19T00:34:37.032Z,99017.38
2023-01-19T00:36:40.098Z,99011.22
2023-01-19T00:38:43.400Z,99006.25
2023-01-19T00:40:47.222Z,99020.28
2023-01-19T00:42:49.088Z,99024.25
2023-01-19T00:44:51.912Z,99019.38
2023-01-19T00:46:54.971Z,99014.78
2023-01-19T00:49:00.187Z,99011.41
2023-01-19T00:51:03.455Z,99016.47
2023-01-19T00:53:06.535Z,99024.09
2023-01-19T00:55:11.904Z,99015.56
2023-01-19T00:57:16.222Z,99010.13
2023-01-19T00:59:19.152Z,99019.75
2023-01-19T01:01:22.124Z,99012.13
2023-01-19T01:03:44.909Z,99007.03
2023-01-19T01:05:50.531Z,99021.97
2023-01-19T01:07:53.341Z,99008.59
2023-01-19T01:09:56.674Z,99011.47
2023-01-19T01:12:02.073Z,99012.22
2023-01-19T01:14:04.950Z,99015.03
2023-01-19T01:16:12.270Z,99021.00
2023-01-19T01:18:15.164Z,99026.38
2023-01-19T01:20:20.106Z,99024.34
2023-01-19T01:22:27.060Z,99031.06
2023-01-19T01:24:30.113Z,99023.22
2023-01-19T01:26:32.881Z,99025.06
2023-01-19T01:28:35.734Z,99031.06
2023-01-19T01:30:41.047Z,99033.59
2023-01-19T01:32:43.959Z,99023.38
2023-01-19T01:34:48.024Z,99027.66
2023-01-19T01:36:51.376Z,99025.06
2023-01-19T01:38:56.455Z,99024.50
2023-01-19T01:40:59.599Z,99031.13
2023-01-19T01:43:03.106Z,99036.03
2023-01-19T01:45:14.124Z,99033.59
2023-01-19T01:47:19.686Z,99045.63
2023-01-19T01:49:24.905Z,99037.88
2023-01-19T01:51:31.311Z,99042.94
2023-01-19T01:53:35.545Z,99025.53
2023-01-19T01:55:43.293Z,99043.75
2023-01-19T01:57:49.257Z,99028.75
2023-01-19T01:59:52.492Z,99030.59
2023-01-19T02:02:15.548Z,99051.41
2023-01-19T02:04:19.103Z,99039.03
2023-01-19T02:06:22.330Z,99040.09
2023-01-19T02:08:47.229Z,99037.28
2023-01-19T02:11:09.590Z,99031.88
2023-01-19T02:13:18.950Z,99031.75
2023-01-19T02:15:22.222Z,99025.59
2023-01-19T02:17:25.348Z,99022.38
2023-01-19T02:19:32.919Z,99017.00
2023-01-19T02:21:39.957Z,99025.06
2023-01-19T02:23:46.682Z,99027.22
2023-01-19T02:25:50.474Z,99021.44
2023-01-19T02:27:53.679Z,99029.72
2023-01-19T02:29:56.961Z,99027.13
2023-01-19T02:32:02.371Z,99036.66
2023-01-19T02:34:07.921Z,99040.16
2023-01-19T02:36:12.236Z,99025.38
2023-01-19T02:38:16.571Z,99020.41
2023-01-19T02:40:22.055Z,99011.69
2023-01-19T02:42:29.010Z,99015.06
2023-01-19T02:44:34.449Z,99009.19
2023-01-19T02:46:41.091Z,99011.03
2023-01-19T02:48:43.959Z,99003.19
2023-01-19T02:50:49.865Z,99014.47
2023-01-19T02:52:53.885Z,99016.00
2023-01-19T02:55:03.893Z,99010.63
2023-01-19T02:57:34.168Z,99004.28
2023-01-19T02:59:47.963Z,98998.59
2023-01-19T03:02:08.903Z,99011.47
2023-01-19T03:04:16.928Z,98998.69
2023-01-19T03:06:28.001Z,99001.56
2023-01-19T03:08:43.772Z,98995.78
2023-01-19T03:10:52.579Z,98998.22
2023-01-19T03:13:03.788Z,99004.34
2023-01-19T03:15:15.520Z,98987.25
2023-01-19T03:17:19.883Z,99004.72
2023-01-19T03:19:27.479Z,99013.53
2023-01-19T03:21:32.011Z,98985.53
2023-01-19T03:23:42.914Z,98999.06
2023-01-19T03:25:46.919Z,98994.41
2023-01-19T03:27:52.989Z,99005.03
2023-01-19T03:30:01.847Z,98998.25
2023-01-19T03:32:09.744Z,98987.72
2023-01-19T03:34:20.141Z,98994.88
2023-01-19T03:36:29.235Z,98985.41
2023-01-19T03:38:40.509Z,98987.06
2023-01-19T03:40:44.172Z,98988.81
2023-01-19T03:42:47.584Z,98979.41
2023-01-19T03:44:52.599Z,98980.94
2023-01-19T03:46:58.735Z,98979.41
2023-01-19T03:49:02.884Z,98977.56
2023-01-19T03:51:09.779Z,98988.03
2023-01-19T03:53:15.669Z,98995.84
2023-01-19T03:55:21.869Z,99001.19
2023-01-19T03:57:26.423Z,98993.66
2023-01-19T03:59:31.693Z,98995.78
2023-01-19T04:01:39.143Z,98994.00
2023-01-19T04:03:44.511Z,98999.06
2023-01-19T04:05:47.821Z,99001.97
2023-01-19T04:07:54.036Z,98998.09
2023-01-19T04:10:05.396Z,98988.44
2023-01-19T04:12:08.935Z,99001.38
2023-01-19T04:14:12.158Z,98993.59
2023-01-19T04:16:20.519Z,98996.03
2023-01-19T04:18:24.296Z,98989.09
2023-01-19T04:20:29.409Z,98994.41
2023-01-19T04:22:39.136Z,98990.16
2023-01-19T04:24:44.663Z,98995.31
2023-01-19T04:26:48.088Z,98989.88
2023-01-19T04:28:54.005Z,99000.38
2023-01-19T04:30:59.117Z,98992.41
2023-01-19T04:33:02.645Z,98998.31
2023-01-19T04:35:07.276Z,98992.16
2023-01-19T04:37:16.617Z,99002.94
2023-01-19T04:39:20.594Z,98991.38
2023-01-19T04:41:23.618Z,98996.59
2023-01-19T04:43:28.402Z,98993.75
2023-01-19T04:45:31.630Z,98990.38
2023-01-19T04:47:35.793Z,98986.09
2023-01-19T04:49:41.107Z,98991.47
2023-01-19T04:51:45.103Z,98988.63
2023-01-19T04:53:51.862Z,98983.94
2023-01-19T04:55:55.906Z,98998.84
2023-01-19T04:58:00.209Z,98989.72
2023-01-19T05:00:04.157Z,98983.59
2023-01-19T05:02:08.096Z,98994.47
2023-01-19T05:04:14.445Z,98992.31
2023-01-19T05:06:20.168Z,99001.28
2023-01-19T05:08:23.079Z,98990.78
2023-01-19T05:10:29.147Z,99005.78
2023-01-19T05:12:33.352Z,99001.31
2023-01-19T05:14:40.060Z,99004.59
2023-01-19T05:16:47.108Z,99007.28
2023-01-19T05:18:56.126Z,99003.13
2023-01-19T05:21:02.185Z,99002.69
2023-01-19T05:23:07.620Z,99006.47
2023-01-19T05:25:11.947Z,99015.34
2023-01-19T05:27:18.195Z,99020.31
2023-01-19T05:29:22.298Z,99012.00
2023-01-19T05:31:26.509Z,99019.78
2023-01-19T05:33:36.732Z,99021.81
2023-01-19T05:35:40.253Z,99019.97
2023-01-19T05:37:45.736Z,99018.34
2023-01-19T05:39:50.865Z,99025.91
2023-01-19T05:41:53.976Z,99011.25
2023-01-19T05:43:58.748Z,99020.66
2023-01-19T05:46:04.605Z,99023.94
2023-01-19T05:48:10.469Z,99026.72
2023-01-19T05:50:13.774Z,99027.69
2023-01-19T05:52:17.126Z,99032.88
2023-01-19T05:54:21.369Z,99028.41
2023-01-19T05:56:26.211Z,99028.50
2023-01-19T05:58:34.821Z,99037.34
2023-01-19T06:00:40.470Z,99034.78
2023-01-19T06:02:43.600Z,99033.88
2023-01-19T06:04:48.144Z,99039.94
2023-01-19T06:06:53.515Z,99042.44
2023-01-19T06:08:58.567Z,99044.09
2023-01-19T06:11:04.191Z,99045.78
2023-01-19T06:13:11.622Z,99041.53
2023-01-19T06:15:17.155Z,99056.19
2023-01-19T06:17:22.214Z,99053.72
2023-01-19T06:19:25.509Z,99064.16
2023-01-19T06:21:29.833Z,99063.53
2023-01-19T06:23:35.909Z,99063.38
2023-01-19T06:25:47.538Z,99060.66
2023-01-19T06:27:51.870Z,99071.19
2023-01-19T06:29:57.228Z,99076.38
2023-01-19T06:32:07.848Z,99082.59
2023-01-19T06:34:18.003Z,99078.97
2023-01-19T06:36:22.382Z,99077.94
2023-01-19T06:38:26.921Z,99079.56
2023-01-19T06:40:31.678Z,99080.75
2023-01-19T06:42:35.438Z,99073.72
2023-01-19T06:44:38.905Z,99086.84
2023-01-19T06:46:42.174Z,99091.75
2023-01-19T06:48:53.589Z,99089.19
2023-01-19T06:50:59.952Z,99082.25
2023-01-19T06:53:05.884Z,99078.72
2023-01-19T06:55:11.761Z,99090.88
2023-01-19T06:57:19.027Z,99096.41
2023-01-19T06:59:22.869Z,99099.66
2023-01-19T07:01:29.265Z,99101.28
2023-01-19T07:03:37.521Z,99108.13
2023-01-19T07:05:44.188Z,99108.13
2023-01-19T07:07:52.886Z,99116.63
2023-01-19T07:09:55.911Z,99106.38
2023-01-19T07:12:02.338Z,99109.94
2023-01-19T07:14:09.295Z,99112.69
2023-01-19T07:16:14.701Z,99110.75
2023-01-19T07:18:19.736Z,99122.75
2023-01-19T07:20:24.014Z,99120.16
2023-01-19T07:22:27.188Z,99131.19
2023-01-19T07:24:33.573Z,99123.72
2023-01-19T07:26:39.532Z,99135.06
2023-01-19T07:28:47.360Z,99146.31
2023-01-19T07:30:55.689Z,99149.66
2023-01-19T07:33:00.887Z,99143.66
2023-01-19T07:35:06.451Z,99153.16
2023-01-19T07:37:10.803Z,99153.25
2023-01-19T07:39:18.188Z,99153.72
2023-01-19T07:41:27.825Z,99135.69
2023-01-19T07:43:32.635Z,99155.91
2023-01-19T07:45:45.176Z,99158.13
2023-01-19T07:47:52.364Z,99166.91
2023-01-19T07:49:57.660Z,99168.72
2023-01-19T07:52:02.896Z,99166.00
2023-01-19T07:54:08.686Z,99179.63
2023-01-19T07:56:12.628Z,99180.25
2023-01-19T07:58:17.256Z,99197.06
2023-01-19T08:00:25.881Z,99190.19
2023-01-19T08:02:30.587Z,99190.91
2023-01-19T08:04:38.052Z,99185.56
2023-01-19T08:06:47.770Z,99191.72
2023-01-19T08:08:58.823Z,99200.56
2023-01-19T08:11:06.627Z,99202.25
2023-01-19T08:13:09.964Z,99209.91
2023-01-19T08:15:15.971Z,99209.88
2023-01-19T08:17:19.494Z,99209.13
2023-01-19T08:19:29.105Z,99214.28
2023-01-19T08:21:35.668Z,99209.16
2023-01-19T08:23:39.219Z,99217.50
2023-01-19T08:25:44.678Z,99215.84
2023-01-19T08:27:50.056Z,99224.66
2023-01-19T08:29:58.891Z,99220.97
2023-01-19T08:32:04.052Z,99227.94
2023-01-19T08:34:09.980Z,99233.47
2023-01-19T08:36:13.364Z,99228.19
2023-01-19T08:38:18.912Z,99228.31
2023-01-19T08:40:21.833Z,99243.78
2023-01-19T08:42:24.979Z,99246.25
2023-01-19T08:44:28.287Z,99245.22
2023-01-19T08:46:31.704Z,99250.41
2023-01-19T08:48:35.961Z,99247.78
2023-01-19T08:50:38.880Z,99240.91
2023-01-19T08:52:41.732Z,99243.34
2023-01-19T08:54:44.606Z,99246.03
2023-01-19T08:56:47.516Z,99263.16
2023-01-19T08:59:07.644Z,99256.91
2023-01-19T09:01:14.082Z,99253.56
2023-01-19T09:03:17.120Z,99272.78
2023-01-19T09:05:21.512Z,99266.75
2023-01-19T09:07:24.354Z,99273.63
2023-01-19T09:09:27.260Z,99266.69
2023-01-19T09:11:30.800Z,99280.47
2023-01-19T09:13:34.498Z,99283.63
2023-01-19T09:15:37.844Z,99283.00
2023-01-19T09:17:41.882Z,99290.03
2023-01-19T09:19:44.930Z,99279.41
2023-01-19T09:21:49.293Z,99300.53
2023-01-19T09:23:52.403Z,99303.56
2023-01-19T09:25:58.743Z,99299.88
2023-01-19T09:28:04.601Z,99298.22
2023-01-19T09:30:11.406Z,99311.16
2023-01-19T09:32:14.261Z,99316.97
2023-01-19T09:34:17.154Z,99319.59
2023-01-19T09:36:20.015Z,99316.06
2023-01-19T09:38:25.855Z,99319.78
2023-01-19T09:40:29.318Z,99322.31
2023-01-19T09:42:34.825Z,99332.88
2023-01-19T09:44:37.925Z,99336.03
2023-01-19T09:46:42.308Z,99340.28
2023-01-19T09:48:47.899Z,99342.72
2023-01-19T09:50:50.960Z,99345.16
2023-01-19T09:53:01.551Z,99351.28
2023-01-19T09:55:21.951Z,99352.19
2023-01-19T09:57:27.168Z,99355.75
2023-01-19T09:59:31.392Z,99360.28
2023-01-19T10:01:39.257Z,99365.28
2023-01-19T10:03:42.564Z,99368.47
2023-01-19T10:05:48.425Z,99372.16
2023-01-19T10:08:05.627Z,99372.91
2023-01-19T10:10:19.518Z,99367.09
2023-01-19T10:12:32.009Z,99375.84
2023-01-19T10:14:38.133Z,99371.94
2023-01-19T10:16:47.529Z,99382.34
2023-01-19T10:18:52.492Z,99371.22
2023-01-19T10:21:01.192Z,99379.75
2023-01-19T10:23:07.120Z,99379.81
2023-01-19T10:25:17.359Z,99373.91
2023-01-19T10:27:22.421Z,99378.72
2023-01-19T10:29:29.223Z,99384.53
2023-01-19T10:31:34.294Z,99372.06
2023-01-19T10:33:37.978Z,99379.75
2023-01-19T10:35:40.971Z,99377.78
2023-01-19T10:37:44.798Z,99379.75
2023-01-19T10:39:48.865Z,99384.94
2023-01-19T10:41:54.648Z,99391.06
2023-01-19T10:44:02.588Z,99385.69
2023-01-19T10:46:09.036Z,99384.88
2023-01-19T10:48:13.546Z,99390.91
2023-01-19T10:50:34.582Z,99395.81
2023-01-19T10:52:39.744Z,99401.19
2023-01-19T10:54:44.753Z,99393.22
2023-01-19T10:56:54.103Z,99396.13
2023-01-19T10:58:57.407Z,99405.66
2023-01-19T11:01:14.169Z,99399.69
2023-01-19T11:03:24.584Z,99407.97
2023-01-19T11:05:29.603Z,99404.81
2023-01-19T11:07:34.092Z,99410.03
2023-01-19T11:09:37.348Z,99408.06
2023-01-19T11:11:44.831Z,99412.41
2023-01-19T11:14:04.876Z,99412.16
2023-01-19T11:16:11.609Z,99404.72
2023-01-19T11:18:24.612Z,99406.53
2023-01-19T11:20:30.478Z,99406.53
2023-01-19T11:22:34.419Z,99413.22
2023-01-19T11:24:39.006Z,99413.50
2023-01-19T11:26:43.799Z,99406.31
2023-01-19T11:28:53.195Z,99413.00
2023-01-19T11:30:58.587Z,99413.75
2023-01-19T11:33:01.803Z,99421.44
2023-01-19T11:35:36.168Z,99416.56
2023-01-19T11:37:42.107Z,99416.50
2023-01-19T11:39:49.949Z,99420.78
2023-01-19T11:41:56.334Z,99413.97
2023-01-19T11:44:04.257Z,99413.63
2023-01-19T11:46:07.281Z,99420.78
2023-01-19T11:48:18.519Z,99418.19
2023-01-19T11:50:24.524Z,99417.84
2023-01-19T11:52:29.665Z,99413.09
2023-01-19T11:54:37.167Z,99415.59
2023-01-19T11:56:40.235Z,99416.66
2023-01-19T11:58:46.877Z,99426.59
2023-01-19T12:00:53.517Z,99418.31
2023-01-19T12:03:00.959Z,99419.19
2023-01-19T12:05:08.424Z,99416.38
2023-01-19T12:07:13.263Z,99415.91
2023-01-19T12:09:20.193Z,99424.13
2023-01-19T12:11:27.759Z,99426.09
2023-01-19T12:13:31.804Z,99427.34
2023-01-19T12:15:37.951Z,99431.88
2023-01-19T12:17:46.943Z,99425.22
2023-01-19T12:19:55.146Z,99429.56
2023-01-19T12:22:05.591Z,99429.06
2023-01-19T12:24:19.799Z,99417.84
2023-01-19T12:26:43.909Z,99427.75
2023-01-19T12:28:52.156Z,99420.00
2023-01-19T12:30:56.463Z,99420.34
2023-01-19T12:33:23.036Z,99418.88
2023-01-19T12:35:59.743Z,99425.09
2023-01-19T12:38:05.053Z,99430.13
2023-01-19T12:40:24.962Z,99425.91
2023-01-19T12:42:30.733Z,99432.16
2023-01-19T12:44:37.488Z,99436.88
2023-01-19T12:46:43.742Z,99417.47
2023-01-19T12:48:51.779Z,99431.63
2023-01-19T12:51:02.553Z,99431.31
2023-01-19T12:53:08.623Z,99427.81
2023-01-19T12:55:26.982Z,99433.09
2023-01-19T12:57:35.452Z,99434.66
2023-01-19T12:59:39.101Z,99431.09
2023-01-19T13:01:42.267Z,99437.91
2023-01-19T13:03:59.320Z,99436.59
2023-01-19T13:06:02.317Z,99442.50
2023-01-19T13:08:19.811Z,99435.00
2023-01-19T13:10:54.822Z,99435.81
2023-01-19T13:13:18.867Z,99430.81
2023-01-19T13:15:30.639Z,99436.34
2023-01-19T13:17:37.664Z,99439.69
2023-01-19T13:19:50.605Z,99441.44
2023-01-19T13:21:54.965Z,99438.47
2023-01-19T13:24:01.633Z,99443.72
2023-01-19T13:26:07.177Z,99447.25
2023-01-19T13:28:12.535Z,99445.47
2023-01-19T13:30:19.428Z,99443.59
2023-01-19T13:32:25.637Z,99442.69
2023-01-19T13:34:30.661Z,99435.66
2023-01-19T13:36:38.052Z,99446.63
2023-01-19T13:38:43.219Z,99437.16
2023-01-19T13:40:47.244Z,99441.03
2023-01-19T13:42:56.399Z,99444.22
2023-01-19T13:45:03.120Z,99446.25
2023-01-19T13:47:09.813Z,99443.81
2023-01-19T13:49:19.313Z,99445.06
2023-01-19T13:51:23.789Z,99447.94
2023-01-19T13:53:31.379Z,99449.84
2023-01-19T13:55:35.586Z,99449.56
2023-01-19T13:57:42.038Z,99457.66
2023-01-19T13:59:45.212Z,99451.75
2023-01-19T14:01:51.241Z,99447.53
2023-01-19T14:03:59.356Z,99457.06
2023-01-19T14:06:03.499Z,99459.53
2023-01-19T14:08:15.288Z,99465.44
2023-01-19T14:10:20.903Z,99458.19
2023-01-19T14:12:25.741Z,99467.34
2023-01-19T14:14:34.625Z,99465.72
2023-01-19T14:16:40.141Z,99465.78
2023-01-19T14:18:43.523Z,99459.78
2023-01-19T14:20:57.352Z,99467.06
2023-01-19T14:23:00.847Z,99470.47
2023-01-19T14:25:38.994Z,99469.28
2023-01-19T14:27:44.922Z,99474.56
2023-01-19T14:29:50.717Z,99473.25
2023-01-19T14:32:08.926Z,99479.00
2023-01-19T14:34:34.452Z,99478.91
2023-01-19T14:36:42.191Z,99480.75
2023-01-19T14:38:45.706Z,99478.09
2023-01-19T14:40:49.075Z,99488.34
2023-01-19T14:42:57.393Z,99485.00
2023-01-19T14:45:02.989Z,99491.03
2023-01-19T14:47:14.034Z,99492.16
2023-01-19T14:49:21.882Z,99493.63
2023-01-19T14:51:27.975Z,99498.19
2023-01-19T14:53:38.701Z,99499.16
2023-01-19T14:55:47.603Z,99496.31
2023-01-19T14:57:50.669Z,99494.47
2023-01-19T14:59:56.035Z,99500.25
2023-01-19T15:02:00.995Z,99505.69
2023-01-19T15:04:05.584Z,99514.00
2023-01-19T15:06:12.806Z,99510.94
2023-01-19T15:08:18.100Z,99511.34
2023-01-19T15:10:25.628Z,99509.97
2023-01-19T15:12:32.786Z,99506.66
2023-01-19T15:14:36.570Z,99515.22
2023-01-19T15:16:45.625Z,99510.75
2023-01-19T15:18:50.877Z,99514.03
2023-01-19T15:20:55.649Z,99513.13
2023-01-19T15:23:04.040Z,99514.81
2023-01-19T15:25:08.501Z,99515.78
2023-01-19T15:27:14.480Z,99515.78
2023-01-19T15:29:22.738Z,99513.13
2023-01-19T15:31:27.876Z,99524.25
2023-01-19T15:33:33.141Z,99528.63
2023-01-19T15:35:37.089Z,99534.75
2023-01-19T15:37:41.083Z,99528.63
2023-01-19T15:39:43.957Z,99526.78
2023-01-19T15:41:48.883Z,99532.81
2023-01-19T15:43:54.527Z,99535.41
2023-01-19T15:46:03.117Z,99537.28
2023-01-19T15:48:13.409Z,99536.34
2023-01-19T15:50:20.052Z,99534.59
2023-01-19T15:52:25.596Z,99537.31
2023-01-19T15:54:32.808Z,99533.97
2023-01-19T15:56:37.415Z,99540.91
2023-01-19T15:58:50.311Z,99545.25
2023-01-19T16:01:02.879Z,99542.06
2023-01-19T16:03:05.919Z,99547.97
2023-01-19T16:05:13.743Z,99548.78
2023-01-19T16:07:19.682Z,99546.91
2023-01-19T16:09:23.099Z,99547.81
2023-01-19T16:11:37.610Z,99553.31
2023-01-19T16:13:41.670Z,99549.97
2023-01-19T16:15:47.095Z,99558.72
2023-01-19T16:17:52.764Z,99551.81
2023-01-19T16:19:55.721Z,99561.59
2023-01-19T16:21:58.940Z,99555.50
2023-01-19T16:24:14.115Z,99557.34
2023-01-19T16:26:28.935Z,99560.19
2023-01-19T16:28:33.613Z,99555.66
2023-01-19T16:30:37.607Z,99559.13
2023-01-19T16:32:42.665Z,99568.94
2023-01-19T16:34:46.122Z,99559.34
2023-01-19T16:36:58.018Z,99562.75
2023-01-19T16:39:02.614Z,99570.63
2023-01-19T16:41:12.149Z,99567.19
2023-01-19T16:43:19.773Z,99576.84
2023-01-19T16:45:23.021Z,99578.75
2023-01-19T16:47:26.973Z,99576.97
2023-01-19T16:49:35.894Z,99584.81
2023-01-19T16:51:58.923Z,99591.84
2023-01-19T16:54:02.164Z,99587.56
2023-01-19T16:56:08.977Z,99599.75
2023-01-19T16:58:13.859Z,99596.63
2023-01-19T17:00:20.165Z,99597.38
2023-01-19T17:02:26.653Z,99593.75
2023-01-19T17:04:32.887Z,99610.22
2023-01-19T17:06:38.532Z,99605.09
2023-01-19T17:08:45.914Z,99615.44
2023-01-19T17:10:50.371Z,99610.16
2023-01-19T17:12:55.682Z,99607.63
2023-01-19T17:15:01.942Z,99612.94
2023-01-19T17:17:05.220Z,99614.53
2023-01-19T17:19:11.195Z,99613.75
2023-01-19T17:21:19.109Z,99619.03
2023-01-19T17:23:22.733Z,99616.53
2023-01-19T17:25:26.081Z,99618.97
2023-01-19T17:27:32.533Z,99623.47
2023-01-19T17:29:39.469Z,99621.09
2023-01-19T17:31:43.403Z,99622.69
2023-01-19T17:33:52.316Z,99627.84
2023-01-19T17:35:55.332Z,99633.88
2023-01-19T17:38:01.352Z,99633.72
2023-01-19T17:40:04.925Z,99637.16
2023-01-19T17:42:10.767Z,99636.31
2023-01-19T17:44:13.960Z,99637.34
2023-01-19T17:46:19.335Z,99649.38
2023-01-19T17:48:23.566Z,99645.28
2023-01-19T17:50:27.118Z,99641.69
2023-01-19T17:52:31.446Z,99641.69
2023-01-19T17:54:35.206Z,99640.22
2023-01-19T17:56:38.810Z,99643.59
2023-01-19T18:02:24.294Z,99636.81
2023-01-19T18:04:27.713Z,99639.31
2023-01-19T18:06:31.432Z,99641.88
2023-01-19T18:08:36.279Z,99640.19
2023-01-19T18:10:42.520Z,99644.63
2023-01-19T18:12:47.535Z,99648.88
2023-01-19T18:14:53.650Z,99651.56
2023-01-19T18:16:56.658Z,99648.88
2023-01-19T18:19:01.448Z,99655.97
2023-01-19T18:21:07.391Z,99648.13
2023-01-19T18:23:17.538Z,99649.97
2023-01-19T18:25:21.559Z,99655.25
2023-01-19T18:27:26.127Z,99656.91
2023-01-19T18:29:31.476Z,99656.28
2023-01-19T18:31:34.933Z,99655.47
2023-01-19T18:33:38.838Z,99658.75
2023-01-19T18:35:43.901Z,99666.47
2023-01-19T18:37:47.149Z,99655.22
2023-01-19T18:39:51.743Z,99649.06
2023-01-19T18:41:57.284Z,99660.31
2023-01-19T18:44:01.171Z,99657.75
2023-01-19T18:46:09.269Z,99651.69
2023-01-19T18:48:14.472Z,99660.47
2023-01-19T18:50:18.905Z,99661.47
2023-01-19T18:52:24.034Z,99666.47
2023-01-19T18:54:27.451Z,99660.44
2023-01-19T18:56:31.374Z,99663.13
2023-01-19T18:58:37.449Z,99658.88
2023-01-19T19:00:40.559Z,99660.47
2023-01-19T19:02:43.857Z,99662.16
2023-01-19T19:04:48.359Z,99663.28
2023-01-19T19:06:54.646Z,99667.59
2023-01-19T19:09:03.316Z,99665.72
2023-01-19T19:11:12.095Z,99674.44
2023-01-19T19:13:21.059Z,99671.16
2023-01-19T19:15:27.665Z,99668.69
2023-01-19T19:17:30.734Z,99667.00
2023-01-19T19:19:33.718Z,99672.22
2023-01-19T19:21:36.878Z,99679.03
2023-01-19T19:23:41.057Z,99676.41
2023-01-19T19:25:45.947Z,99677.09
2023-01-19T19:27:51.757Z,99683.19
2023-01-19T19:29:54.962Z,99687.66
2023-01-19T19:31:57.840Z,99680.00
2023-01-19T19:34:01.282Z,99679.91
2023-01-19T19:36:05.046Z,99684.16
2023-01-19T19:38:08.674Z,99686.81
2023-01-19T19:40:12.976Z,99686.69
2023-01-19T19:42:18.873Z,99690.25
2023-01-19T19:44:21.856Z,99690.16
2023-01-19T19:46:25.693Z,99694.41
2023-01-19T19:48:29.376Z,99695.28
2023-01-19T19:50:35.868Z,99698.72
2023-01-19T19:52:40.279Z,99696.16
2023-01-19T19:54:44.338Z,99691.84
2023-01-19T19:56:50.761Z,99695.22
2023-01-19T19:58:56.549Z,99697.81
2023-01-19T20:01:03.096Z,99694.53
2023-01-19T20:03:06.103Z,99693.75
2023-01-19T20:05:09.633Z,99699.66
2023-01-19T20:07:12.724Z,99696.28
2023-01-19T20:09:17.206Z,99706.59
2023-01-19T20:11:23.393Z,99711.75
2023-01-19T20:13:28.542Z,99711.78
2023-01-19T20:15:33.082Z,99708.41
2023-01-19T20:17:37.825Z,99717.72
2023-01-19T20:19:40.715Z,99719.41
2023-01-19T20:21:43.944Z,99722.03
2023-01-19T20:23:47.719Z,99725.47
2023-01-19T20:25:53.427Z,99721.09
2023-01-19T20:28:00.324Z,99720.16
2023-01-19T20:30:03.929Z,99720.19
2023-01-19T20:32:09.141Z,99727.88
2023-01-19T20:34:14.016Z,99723.69
2023-01-19T20:36:17.283Z,99723.59
2023-01-19T20:38:20.298Z,99724.47
2023-01-19T20:40:23.289Z,99724.34
2023-01-19T20:42:26.483Z,99721.75
2023-01-19T20:44:30.175Z,99725.28
2023-01-19T20:46:33.124Z,99726.91
2023-01-19T20:48:39.173Z,99730.34
2023-01-19T20:50:42.172Z,99737.28
2023-01-19T20:52:45.076Z,99733.03
2023-01-19T20:54:48.021Z,99740.81
2023-01-19T20:56:51.124Z,99742.44
2023-01-19T20:58:54.296Z,99745.88
2023-01-19T21:00:59.868Z,99750.13
2023-01-19T21:03:03.508Z,99750.19
2023-01-19T21:05:09.794Z,99756.28
2023-01-19T21:11:34.283Z,99762.31
2023-01-19T21:13:38.212Z,99768.28
2023-01-19T21:15:41.244Z,99771.75
2023-01-19T21:17:45.275Z,99776.84
2023-01-19T21:19:48.367Z,99777.66
2023-01-19T21:21:52.784Z,99777.78
2023-01-19T21:23:58.072Z,99776.81
2023-01-19T21:26:01.836Z,99773.28
2023-01-19T21:28:07.105Z,99780.25
2023-01-19T21:30:11.257Z,99789.03
2023-01-19T21:32:14.270Z,99785.38
2023-01-19T21:34:17.284Z,99785.38
2023-01-19T21:36:20.862Z,99791.47
2023-01-19T21:38:29.341Z,99794.34
2023-01-19T21:40:32.337Z,99798.53
2023-01-19T21:42:35.247Z,99792.56
2023-01-19T21:44:38.414Z,99796.09
2023-01-19T21:46:43.482Z,99807.31
2023-01-19T21:48:47.582Z,99805.63
2023-01-19T21:50:58.539Z,99804.88
2023-01-19T21:53:01.553Z,99810.81
2023-01-19T21:55:07.244Z,99801.19
2023-01-19T21:57:10.339Z,99810.69
2023-01-19T21:59:14.767Z,99808.22
2023-01-19T22:01:18.086Z,99816.94
2023-01-19T22:03:26.791Z,99819.53
2023-01-19T22:05:29.682Z,99822.88
2023-01-19T22:07:32.917Z,99832.34
2023-01-19T22:09:36.031Z,99831.53
2023-01-19T22:11:40.699Z,99827.06
2023-01-19T22:13:44.333Z,99835.00
2023-01-19T22:15:47.252Z,99835.88
2023-01-19T22:17:50.132Z,99843.56
2023-01-19T22:19:56.023Z,99840.09
2023-01-19T22:21:59.046Z,99838.44
2023-01-19T22:24:02.952Z,99840.94
2023-01-19T22:26:06.675Z,99840.19
2023-01-19T22:28:12.273Z,99841.81
2023-01-19T22:30:17.855Z,99843.53
2023-01-19T22:32:21.056Z,99844.28
2023-01-19T22:34:23.897Z,99841.59
2023-01-19T22:36:31.793Z,99833.75
2023-01-19T22:38:35.135Z,99841.66
2023-01-19T22:40:38.141Z,99845.16
2023-01-19T22:42:41.050Z,99839.88
2023-01-19T22:44:45.835Z,99845.84
2023-01-19T22:46:54.870Z,99849.44
2023-01-19T22:48:58.752Z,99846.84
2023-01-19T22:51:02.323Z,99845.94
2023-01-19T22:53:08.271Z,99849.53
2023-01-19T22:55:13.264Z,99842.47
2023-01-19T22:57:16.904Z,99851.94
2023-01-19T22:59:21.473Z,99852.03
2023-01-19T23:01:28.539Z,99849.38
2023-01-19T23:03:32.065Z,99852.97
2023-01-19T23:05:37.035Z,99852.16
2023-01-19T23:07:42.966Z,99860.03
2023-01-19T23:09:46.025Z,99856.41
2023-01-19T23:11:52.263Z,99851.31
2023-01-19T23:13:59.975Z,99853.00
2023-01-19T23:16:06.719Z,99859.97
2023-01-19T23:18:14.523Z,99861.66
2023-01-19T23:20:19.443Z,99858.16
2023-01-19T23:22:23.416Z,99864.22
2023-01-19T23:24:27.547Z,99860.72
2023-01-19T23:26:38.222Z,99870.25
2023-01-19T23:28:43.894Z,99860.59
2023-01-19T23:30:49.455Z,99868.50
2023-01-19T23:32:52.665Z,99866.81
2023-01-19T23:35:03.075Z,99864.22
2023-01-19T23:37:07.826Z,99864.28
2023-01-19T23:39:15.023Z,99871.25
2023-01-19T23:41:18.738Z,99873.09
2023-01-19T23:43:22.912Z,99876.53
2023-01-19T23:45:27.056Z,99878.19
2023-01-19T23:47:31.355Z,99879.91
2023-01-19T23:49:34.675Z,99880.00
2023-01-19T23:51:42.040Z,99885.41
2023-01-19T23:53:45.278Z,99885.19
2023-01-19T23:55:49.781Z,99888.63
2023-01-19T23:57:52.900Z,99887.75
2023-01-19T23:59:56.985Z,99888.69
